createdAt,value
2019-03-06T00:01:42.550Z,6.50
2019-03-06T00:04:12.010Z,6.50
2019-03-06T00:06:41.449Z,6.40
2019-03-06T00:09:11.266Z,6.40
2019-03-06T00:11:40.789Z,6.40
2019-03-06T00:14:10.311Z,6.40
2019-03-06T00:16:39.792Z,6.40
2019-03-06T00:19:09.544Z,6.40
2019-03-06T00:21:39.032Z,6.40
2019-03-06T00:24:08.443Z,6.40
2019-03-06T00:26:37.999Z,6.40
2019-03-06T00:29:07.426Z,6.50
2019-03-06T00:31:37.211Z,6.40
2019-03-06T00:34:06.646Z,6.40
2019-03-06T00:36:36.700Z,6.40
2019-03-06T00:39:08.582Z,6.30
2019-03-06T00:41:40.884Z,6.30
2019-03-06T00:44:10.399Z,6.40
2019-03-06T00:46:39.847Z,6.40
2019-03-06T00:49:09.260Z,6.30
2019-03-06T00:51:38.706Z,6.30
2019-03-06T00:54:08.421Z,6.30
2019-03-06T00:56:37.844Z,6.30
2019-03-06T00:59:07.265Z,6.30
2019-03-06T01:01:36.740Z,6.30
2019-03-06T01:04:06.475Z,6.30
2019-03-06T01:06:36.016Z,6.20
2019-03-06T01:09:07.337Z,6.20
2019-03-06T01:11:36.833Z,6.20
2019-03-06T01:14:06.253Z,6.20
2019-03-06T01:16:35.720Z,6.20
2019-03-06T01:19:05.185Z,6.10
2019-03-06T01:21:34.636Z,6.20
2019-03-06T01:24:04.063Z,6.10
2019-03-06T01:26:33.506Z,6.10
2019-03-06T01:29:02.932Z,6.10
2019-03-06T01:31:32.490Z,6.10
2019-03-06T01:34:39.489Z,6.10
2019-03-06T01:37:30.746Z,6.10
2019-03-06T01:40:19.121Z,6.00
2019-03-06T01:42:53.184Z,6.10
2019-03-06T01:45:22.604Z,6.00
2019-03-06T01:47:52.154Z,6.00
2019-03-06T01:50:21.632Z,6.00
2019-03-06T01:52:51.272Z,6.00
2019-03-06T01:55:20.690Z,6.00
2019-03-06T01:57:50.124Z,6.00
2019-03-06T02:00:19.971Z,6.00
2019-03-06T02:02:49.519Z,5.90
2019-03-06T02:05:18.951Z,5.90
2019-03-06T02:07:48.375Z,5.90
2019-03-06T02:10:18.089Z,5.90
2019-03-06T02:12:47.554Z,5.90
2019-03-06T02:15:17.792Z,5.90
2019-03-06T02:17:47.242Z,5.80
2019-03-06T02:20:17.259Z,5.80
2019-03-06T02:22:47.189Z,5.90
2019-03-06T02:25:16.596Z,5.90
2019-03-06T02:27:46.253Z,5.80
2019-03-06T02:30:18.493Z,5.80
2019-03-06T02:32:47.957Z,5.80
2019-03-06T02:35:17.590Z,5.70
2019-03-06T02:37:47.008Z,5.70
2019-03-06T02:40:16.435Z,5.70
2019-03-06T02:42:45.855Z,5.70
2019-03-06T02:45:16.288Z,5.70
2019-03-06T02:47:45.694Z,5.60
2019-03-06T02:50:15.557Z,5.70
2019-03-06T02:52:45.275Z,5.60
2019-03-06T02:55:15.269Z,5.60
2019-03-06T02:57:51.322Z,5.60
2019-03-06T03:00:46.657Z,5.60
2019-03-06T03:03:28.049Z,5.60
2019-03-06T03:06:04.510Z,5.60
2019-03-06T03:08:34.034Z,5.60
2019-03-06T03:11:03.945Z,5.60
2019-03-06T03:13:33.421Z,5.50
2019-03-06T03:16:02.840Z,5.60
2019-03-06T03:18:32.255Z,5.30
2019-03-06T03:21:01.720Z,5.40
2019-03-06T03:23:31.124Z,5.40
2019-03-06T03:26:00.579Z,5.40
2019-03-06T03:28:30.002Z,5.40
2019-03-06T03:30:59.454Z,4.60
2019-03-06T03:33:28.841Z,4.80
2019-03-06T03:35:58.291Z,5.20
2019-03-06T03:38:27.733Z,5.30
2019-03-06T03:40:57.279Z,5.30
2019-03-06T03:43:26.684Z,5.30
2019-03-06T03:45:56.317Z,5.40
2019-03-06T03:48:25.786Z,5.30
2019-03-06T03:50:55.301Z,5.20
2019-03-06T03:53:24.753Z,5.30
2019-03-06T03:55:54.195Z,5.30
2019-03-06T03:58:23.714Z,5.30
2019-03-06T04:00:53.154Z,5.30
2019-03-06T04:03:22.558Z,5.30
2019-03-06T04:05:51.989Z,5.30
2019-03-06T04:08:21.407Z,5.20
2019-03-06T04:10:51.035Z,5.10
2019-03-06T04:13:20.466Z,5.10
2019-03-06T04:15:49.897Z,5.20
2019-03-06T04:18:19.308Z,5.10
2019-03-06T04:20:48.760Z,5.20
2019-03-06T04:23:18.441Z,5.10
2019-03-06T04:25:47.890Z,5.10
2019-03-06T04:28:17.310Z,5.10
2019-03-06T04:30:46.748Z,5.10
2019-03-06T04:33:16.160Z,5.20
2019-03-06T04:35:45.908Z,5.10
2019-03-06T04:38:15.314Z,5.10
2019-03-06T04:40:44.735Z,5.10
2019-03-06T04:43:14.151Z,5.10
2019-03-06T04:45:45.066Z,5.10
2019-03-06T04:48:14.669Z,5.00
2019-03-06T04:50:44.137Z,5.10
2019-03-06T04:53:13.561Z,5.10
2019-03-06T04:55:43.005Z,5.10
2019-03-06T04:58:12.420Z,5.10
2019-03-06T05:00:41.845Z,5.00
2019-03-06T05:03:11.265Z,5.00
2019-03-06T05:05:40.732Z,5.00
2019-03-06T05:08:10.210Z,5.00
2019-03-06T05:10:39.660Z,4.40
2019-03-06T05:13:09.113Z,4.70
2019-03-06T05:15:38.561Z,4.80
2019-03-06T05:18:26.927Z,4.90
2019-03-06T05:20:56.363Z,4.90
2019-03-06T05:23:25.833Z,4.90
2019-03-06T05:25:55.284Z,4.90
2019-03-06T05:28:24.701Z,4.90
2019-03-06T05:30:54.116Z,4.90
2019-03-06T05:33:23.926Z,5.00
2019-03-06T05:36:37.564Z,4.90
2019-03-06T05:39:11.886Z,4.90
2019-03-06T05:41:41.568Z,4.90
2019-03-06T05:44:10.996Z,4.80
2019-03-06T05:46:40.467Z,4.80
2019-03-06T05:49:10.152Z,4.80
2019-03-06T05:51:39.592Z,4.80
2019-03-06T05:54:09.018Z,4.70
2019-03-06T05:56:38.462Z,4.60
2019-03-06T05:59:07.874Z,4.70
2019-03-06T06:01:37.319Z,4.70
2019-03-06T06:04:06.848Z,4.70
2019-03-06T06:06:36.266Z,4.70
2019-03-06T06:09:07.087Z,4.60
2019-03-06T06:11:36.510Z,4.40
2019-03-06T06:14:06.053Z,4.50
2019-03-06T06:16:35.473Z,4.50
2019-03-06T06:19:04.924Z,4.50
2019-03-06T06:21:51.809Z,4.40
2019-03-06T06:24:24.170Z,4.30
2019-03-06T06:26:53.585Z,4.10
2019-03-06T06:29:23.021Z,4.30
2019-03-06T06:31:52.429Z,4.20
2019-03-06T06:34:21.885Z,4.10
2019-03-06T06:36:51.313Z,4.10
2019-03-06T06:39:20.766Z,4.60
2019-03-06T06:41:50.168Z,4.80
2019-03-06T06:44:19.632Z,4.60
2019-03-06T06:46:49.144Z,4.60
2019-03-06T06:49:18.582Z,4.70
2019-03-06T06:52:25.339Z,4.50
2019-03-06T06:55:31.046Z,4.60
2019-03-06T06:58:57.167Z,4.90
2019-03-06T07:01:47.473Z,5.30
2019-03-06T07:05:01.580Z,5.80
2019-03-06T07:07:48.577Z,5.90
2019-03-06T07:10:40.425Z,6.10
2019-03-06T07:13:24.626Z,5.90
2019-03-06T07:16:07.688Z,6.30
2019-03-06T07:18:54.688Z,6.10
2019-03-06T07:21:55.213Z,6.00
2019-03-06T07:24:52.428Z,5.90
2019-03-06T07:27:43.577Z,6.40
2019-03-06T07:30:55.694Z,7.00
2019-03-06T07:33:46.981Z,6.80
2019-03-06T07:36:34.247Z,7.20
2019-03-06T07:39:22.825Z,7.40
2019-03-06T07:42:14.227Z,7.00
2019-03-06T07:45:39.225Z,6.80
2019-03-06T07:48:19.167Z,6.80
2019-03-06T07:51:00.969Z,6.80
2019-03-06T07:54:11.190Z,6.80
2019-03-06T07:56:44.593Z,6.60
2019-03-06T07:59:14.019Z,6.50
2019-03-06T08:01:47.009Z,6.50
2019-03-06T08:04:17.932Z,6.30
2019-03-06T08:06:51.241Z,6.30
2019-03-06T08:09:21.140Z,6.40
2019-03-06T08:12:05.202Z,6.50
2019-03-06T08:14:56.731Z,6.80
2019-03-06T08:17:31.543Z,7.10
2019-03-06T08:20:19.038Z,6.90
2019-03-06T08:23:10.167Z,6.70
2019-03-06T08:25:44.605Z,6.80
2019-03-06T08:28:14.802Z,6.80
2019-03-06T08:30:49.169Z,6.80
2019-03-06T08:33:18.743Z,6.80
2019-03-06T08:35:48.246Z,7.00
2019-03-06T08:38:17.709Z,7.00
2019-03-06T08:40:47.153Z,7.10
2019-03-06T08:43:16.571Z,7.20
2019-03-06T08:45:59.649Z,7.30
2019-03-06T08:48:41.720Z,7.70
2019-03-06T08:51:30.168Z,7.70
2019-03-06T08:54:17.334Z,7.80
2019-03-06T08:57:14.973Z,7.80
2019-03-06T08:59:54.256Z,8.20
2019-03-06T09:02:48.261Z,8.20
2019-03-06T09:05:25.516Z,8.10
2019-03-06T09:08:18.514Z,8.60
2019-03-06T09:11:06.892Z,8.60
2019-03-06T09:13:54.193Z,9.10
2019-03-06T09:16:48.627Z,9.30
2019-03-06T09:19:30.949Z,9.70
2019-03-06T09:22:14.130Z,9.60
2019-03-06T09:25:08.640Z,9.60
2019-03-06T09:27:51.309Z,10.40
2019-03-06T09:30:48.764Z,10.00
2019-03-06T09:33:40.126Z,10.00
2019-03-06T09:36:22.710Z,10.00
2019-03-06T09:39:16.146Z,10.40
2019-03-06T09:42:03.739Z,10.20
2019-03-06T09:44:55.242Z,11.60
2019-03-06T09:47:39.169Z,11.50
2019-03-06T09:50:25.579Z,11.10
2019-03-06T09:53:11.701Z,10.50
2019-03-06T09:55:59.436Z,10.40
2019-03-06T09:58:35.244Z,10.30
2019-03-06T10:01:26.761Z,10.50
2019-03-06T10:04:24.105Z,11.20
2019-03-06T10:07:05.023Z,11.60
2019-03-06T10:09:58.840Z,11.80
2019-03-06T10:12:29.740Z,11.60
2019-03-06T10:15:27.244Z,12.10
2019-03-06T10:18:03.559Z,11.40
2019-03-06T10:20:32.957Z,11.60
2019-03-06T10:23:02.400Z,11.70
2019-03-06T10:25:32.305Z,11.40
2019-03-06T10:28:06.230Z,11.80
2019-03-06T10:30:33.581Z,12.20
2019-03-06T10:33:03.013Z,12.20
2019-03-06T10:35:32.519Z,12.20
2019-03-06T10:38:02.234Z,12.20
2019-03-06T10:40:31.628Z,11.90
2019-03-06T10:43:01.378Z,12.30
2019-03-06T10:45:30.805Z,12.50
2019-03-06T10:48:00.265Z,12.00
2019-03-06T10:50:30.771Z,11.80
2019-03-06T10:53:00.879Z,12.20
2019-03-06T10:55:30.411Z,12.00
2019-03-06T10:58:00.068Z,12.20
2019-03-06T11:00:32.064Z,12.80
2019-03-06T11:03:01.749Z,12.90
2019-03-06T11:05:32.950Z,12.50
2019-03-06T11:08:02.843Z,12.80
2019-03-06T11:10:33.984Z,12.40
2019-03-06T11:13:08.855Z,12.60
2019-03-06T11:15:38.630Z,12.40
2019-03-06T11:18:08.737Z,12.90
2019-03-06T11:20:40.620Z,12.40
2019-03-06T11:23:10.021Z,12.70
2019-03-06T11:25:40.621Z,12.30
2019-03-06T11:28:11.300Z,12.40
2019-03-06T11:30:45.465Z,12.20
2019-03-06T11:33:15.431Z,12.30
2019-03-06T11:35:45.275Z,12.10
2019-03-06T11:38:14.989Z,12.20
2019-03-06T11:40:44.431Z,12.30
2019-03-06T11:43:14.045Z,12.40
2019-03-06T11:45:43.984Z,12.50
2019-03-06T11:48:14.315Z,12.60
2019-03-06T11:50:44.318Z,12.60
2019-03-06T11:53:13.933Z,12.60
2019-03-06T11:55:43.371Z,12.50
2019-03-06T11:58:15.203Z,12.50
2019-03-06T12:00:45.445Z,12.70
2019-03-06T12:03:16.956Z,12.60
2019-03-06T12:05:46.857Z,12.60
2019-03-06T12:08:17.126Z,12.60
2019-03-06T12:10:46.701Z,12.70
2019-03-06T12:13:17.192Z,12.60
2019-03-06T12:15:51.010Z,12.70
2019-03-06T12:18:22.472Z,12.90
2019-03-06T12:20:52.109Z,12.50
2019-03-06T12:23:22.542Z,12.70
2019-03-06T12:25:52.082Z,12.80
2019-03-06T12:28:21.496Z,12.80
2019-03-06T12:30:51.080Z,12.80
2019-03-06T12:33:22.948Z,12.60
2019-03-06T12:35:52.811Z,12.70
2019-03-06T12:38:22.443Z,12.80
2019-03-06T12:40:52.195Z,12.70
2019-03-06T12:43:21.698Z,12.70
2019-03-06T12:46:22.964Z,12.70
2019-03-06T12:48:54.624Z,12.50
2019-03-06T12:51:24.643Z,12.70
2019-03-06T12:53:53.999Z,12.80
2019-03-06T12:56:23.441Z,13.00
2019-03-06T12:58:52.806Z,12.80
2019-03-06T13:01:22.248Z,12.80
2019-03-06T13:03:51.683Z,12.80
2019-03-06T13:06:24.767Z,12.80
2019-03-06T13:08:52.654Z,12.80
2019-03-06T13:11:22.148Z,12.80
2019-03-06T13:13:51.644Z,12.80
2019-03-06T13:16:21.088Z,13.00
2019-03-06T13:18:50.501Z,13.10
2019-03-06T13:21:20.278Z,12.90
2019-03-06T13:23:49.710Z,13.20
2019-03-06T13:26:19.152Z,12.80
2019-03-06T13:28:57.146Z,13.00
2019-03-06T13:31:19.710Z,13.20
2019-03-06T13:34:23.373Z,13.20
2019-03-06T13:36:52.820Z,13.00
2019-03-06T13:39:22.228Z,13.10
2019-03-06T13:41:51.865Z,13.00
2019-03-06T13:44:21.283Z,13.10
2019-03-06T13:46:50.862Z,13.00
2019-03-06T13:49:20.276Z,13.00
2019-03-06T13:51:49.748Z,12.90
2019-03-06T13:54:19.321Z,13.00
2019-03-06T13:56:48.943Z,13.00
2019-03-06T13:59:18.526Z,13.00
2019-03-06T14:01:48.541Z,13.00
2019-03-06T14:04:18.042Z,13.00
2019-03-06T14:06:47.441Z,13.00
2019-03-06T14:09:16.882Z,13.20
2019-03-06T14:11:46.547Z,13.30
2019-03-06T14:14:16.123Z,13.30
2019-03-06T14:16:45.542Z,13.30
2019-03-06T14:19:15.172Z,13.30
2019-03-06T14:21:44.592Z,13.30
2019-03-06T14:24:14.399Z,13.20
2019-03-06T14:26:43.805Z,13.20
2019-03-06T14:29:13.317Z,13.10
2019-03-06T14:31:45.493Z,13.20
2019-03-06T14:34:18.561Z,13.00
2019-03-06T14:36:48.079Z,13.20
2019-03-06T14:39:35.632Z,13.20
2019-03-06T14:42:05.562Z,13.00
2019-03-06T14:44:35.138Z,13.00
2019-03-06T14:47:04.643Z,13.10
2019-03-06T14:49:34.377Z,13.20
2019-03-06T14:52:07.155Z,13.10
2019-03-06T14:54:35.113Z,12.90
2019-03-06T14:57:04.580Z,12.90
2019-03-06T14:59:34.020Z,12.90
2019-03-06T15:02:03.437Z,12.90
2019-03-06T15:04:32.876Z,12.90
2019-03-06T15:07:02.298Z,13.00
2019-03-06T15:09:31.756Z,13.00
2019-03-06T15:12:01.213Z,12.90
2019-03-06T15:14:36.091Z,12.80
2019-03-06T15:17:01.705Z,13.10
2019-03-06T15:19:31.144Z,13.10
2019-03-06T15:22:02.257Z,12.80
2019-03-06T15:24:40.723Z,12.90
2019-03-06T15:27:02.735Z,12.90
2019-03-06T15:29:32.309Z,12.80
2019-03-06T15:32:01.741Z,12.90
2019-03-06T15:34:31.169Z,12.80
2019-03-06T15:37:00.766Z,12.80
2019-03-06T15:39:32.075Z,12.80
2019-03-06T15:42:03.283Z,12.90
2019-03-06T15:44:33.130Z,12.80
2019-03-06T15:47:02.727Z,12.80
2019-03-06T15:49:32.162Z,13.00
2019-03-06T15:52:01.569Z,12.80
2019-03-06T15:54:31.026Z,12.60
2019-03-06T15:57:00.547Z,12.60
2019-03-06T15:59:29.995Z,12.60
2019-03-06T16:01:59.614Z,12.40
2019-03-06T16:04:29.054Z,12.20
2019-03-06T16:06:58.453Z,12.20
2019-03-06T16:09:27.925Z,12.20
2019-03-06T16:11:57.676Z,12.20
2019-03-06T16:14:27.149Z,12.30
2019-03-06T16:16:56.564Z,12.50
2019-03-06T16:19:26.001Z,12.40
2019-03-06T16:21:55.419Z,12.20
2019-03-06T16:24:24.885Z,12.30
2019-03-06T16:26:54.514Z,12.20
2019-03-06T16:29:23.960Z,12.00
2019-03-06T16:31:53.425Z,12.20
2019-03-06T16:34:24.672Z,12.30
2019-03-06T16:36:54.117Z,12.30
2019-03-06T16:39:23.847Z,12.20
2019-03-06T16:41:53.335Z,12.10
2019-03-06T16:44:22.837Z,12.00
2019-03-06T16:46:52.436Z,12.50
2019-03-06T16:49:21.864Z,12.60
2019-03-06T16:51:51.414Z,12.60
2019-03-06T16:54:21.433Z,12.70
2019-03-06T16:56:50.893Z,12.60
2019-03-06T16:59:20.339Z,12.70
2019-03-06T17:01:49.824Z,12.70
2019-03-06T17:04:19.368Z,12.70
2019-03-06T17:06:49.129Z,12.60
2019-03-06T17:09:18.952Z,12.60
2019-03-06T17:11:48.457Z,12.70
2019-03-06T17:14:17.956Z,12.70
2019-03-06T17:16:47.413Z,12.70
2019-03-06T17:19:16.814Z,12.70
2019-03-06T17:21:46.261Z,12.60
2019-03-06T17:24:15.671Z,12.60
2019-03-06T17:26:49.925Z,12.60
2019-03-06T17:29:19.384Z,12.50
2019-03-06T17:31:48.852Z,12.50
2019-03-06T17:34:18.425Z,12.50
2019-03-06T17:36:47.887Z,12.50
2019-03-06T17:39:17.916Z,12.50
2019-03-06T17:41:47.349Z,12.40
2019-03-06T17:44:16.889Z,12.40
2019-03-06T17:46:46.344Z,12.40
2019-03-06T17:49:15.965Z,12.20
2019-03-06T17:51:45.394Z,12.10
2019-03-06T17:54:14.803Z,12.10
2019-03-06T17:56:44.250Z,12.20
2019-03-06T17:59:13.768Z,12.20
2019-03-06T18:01:43.511Z,12.10
2019-03-06T18:04:15.719Z,12.10
2019-03-06T18:06:45.278Z,12.10
2019-03-06T18:09:14.910Z,12.30
2019-03-06T18:11:44.529Z,12.10
2019-03-06T18:14:14.173Z,12.10
2019-03-06T18:16:43.609Z,12.00
2019-03-06T18:19:13.062Z,12.00
2019-03-06T18:21:42.524Z,12.00
2019-03-06T18:24:11.928Z,12.00
2019-03-06T18:26:41.420Z,11.90
2019-03-06T18:29:10.828Z,11.60
2019-03-06T18:31:40.268Z,11.70
2019-03-06T18:34:10.347Z,11.70
2019-03-06T18:36:39.810Z,11.80
2019-03-06T18:39:18.909Z,11.80
2019-03-06T18:41:48.746Z,11.80
2019-03-06T18:44:18.190Z,11.70
2019-03-06T18:46:47.650Z,11.70
2019-03-06T18:49:17.052Z,11.70
2019-03-06T18:51:46.496Z,11.60
2019-03-06T18:54:15.889Z,11.60
2019-03-06T18:56:45.312Z,11.60
2019-03-06T18:59:14.745Z,11.60
2019-03-06T19:01:44.293Z,11.50
2019-03-06T19:04:13.822Z,11.50
2019-03-06T19:06:43.253Z,11.50
2019-03-06T19:09:12.679Z,11.50
2019-03-06T19:11:42.432Z,11.40
2019-03-06T19:14:11.856Z,11.40
2019-03-06T19:16:41.383Z,11.40
2019-03-06T19:19:10.807Z,11.30
2019-03-06T19:21:40.264Z,11.30
2019-03-06T19:24:09.712Z,11.30
2019-03-06T19:26:39.507Z,11.30
2019-03-06T19:29:08.964Z,11.20
2019-03-06T19:31:38.566Z,11.20
2019-03-06T19:34:07.938Z,11.20
2019-03-06T19:36:37.355Z,11.20
2019-03-06T19:39:07.465Z,11.10
2019-03-06T19:41:37.266Z,11.10
2019-03-06T19:44:06.815Z,11.10
2019-03-06T19:46:36.225Z,11.00
2019-03-06T19:49:05.792Z,11.00
2019-03-06T19:51:35.225Z,10.90
2019-03-06T19:54:04.791Z,10.90
2019-03-06T19:56:34.486Z,10.80
2019-03-06T19:59:03.938Z,10.70
2019-03-06T20:01:33.344Z,10.70
2019-03-06T20:04:02.803Z,10.70
2019-03-06T20:06:32.293Z,10.70
2019-03-06T20:09:01.739Z,10.70
2019-03-06T20:11:31.457Z,10.70
2019-03-06T20:14:00.950Z,10.70
2019-03-06T20:16:30.469Z,10.70
2019-03-06T20:18:59.902Z,10.60
2019-03-06T20:21:29.409Z,10.60
2019-03-06T20:23:59.094Z,10.60
2019-03-06T20:26:28.734Z,10.60
2019-03-06T20:28:58.326Z,10.50
2019-03-06T20:31:27.758Z,10.50
2019-03-06T20:33:57.190Z,10.50
2019-03-06T20:36:26.644Z,10.40
2019-03-06T20:38:56.101Z,10.40
2019-03-06T20:41:25.726Z,10.40
2019-03-06T20:43:55.176Z,10.40
2019-03-06T20:46:24.646Z,10.40
2019-03-06T20:48:54.090Z,10.40
2019-03-06T20:51:24.832Z,10.30
2019-03-06T20:53:54.306Z,10.30
2019-03-06T20:56:23.947Z,10.30
2019-03-06T20:58:53.465Z,10.30
2019-03-06T21:01:22.913Z,10.30
2019-03-06T21:03:52.472Z,10.30
2019-03-06T21:06:22.130Z,10.30
2019-03-06T21:08:51.578Z,10.30
2019-03-06T21:11:20.993Z,10.20
2019-03-06T21:13:50.608Z,10.20
2019-03-06T21:16:20.309Z,10.10
2019-03-06T21:18:49.747Z,10.10
2019-03-06T21:21:19.275Z,10.10
2019-03-06T21:23:48.734Z,10.10
2019-03-06T21:26:18.469Z,10.10
2019-03-06T21:28:47.911Z,10.10
2019-03-06T21:31:17.647Z,10.00
2019-03-06T21:33:47.130Z,10.00
2019-03-06T21:36:16.546Z,10.00
2019-03-06T21:38:45.993Z,10.00
2019-03-06T21:41:15.407Z,9.90
2019-03-06T21:43:44.976Z,9.90
2019-03-06T21:46:14.807Z,9.90
2019-03-06T21:48:44.269Z,9.80
2019-03-06T21:51:13.698Z,9.80
2019-03-06T21:53:44.586Z,9.80
2019-03-06T21:56:14.002Z,9.80
2019-03-06T21:58:43.464Z,9.80
2019-03-06T22:01:13.325Z,9.70
2019-03-06T22:03:42.782Z,9.70
2019-03-06T22:06:12.284Z,9.70
2019-03-06T22:08:41.704Z,9.60
2019-03-06T22:11:11.142Z,9.60
2019-03-06T22:13:40.603Z,9.50
2019-03-06T22:16:10.363Z,9.40
2019-03-06T22:18:39.756Z,9.30
2019-03-06T22:21:09.205Z,9.30
2019-03-06T22:23:38.616Z,9.20
2019-03-06T22:26:08.042Z,9.30
2019-03-06T22:28:37.449Z,9.30
2019-03-06T22:31:06.963Z,9.30
2019-03-06T22:33:36.373Z,9.20
2019-03-06T22:36:05.914Z,9.10
2019-03-06T22:38:35.386Z,9.10
2019-03-06T22:41:04.819Z,9.00
2019-03-06T22:43:34.226Z,9.10
2019-03-06T22:46:03.848Z,9.10
2019-03-06T22:48:33.253Z,9.30
2019-03-06T22:51:02.693Z,9.10
2019-03-06T22:53:32.348Z,9.30
2019-03-06T22:56:01.921Z,9.30
2019-03-06T22:58:31.553Z,9.10
2019-03-06T23:01:13.778Z,9.10
2019-03-06T23:03:43.273Z,9.10
2019-03-06T23:06:12.709Z,9.10
2019-03-06T23:08:42.109Z,9.00
2019-03-06T23:11:11.542Z,9.00
2019-03-06T23:13:40.989Z,9.10
2019-03-06T23:16:10.420Z,9.10
2019-03-06T23:18:40.073Z,9.30
2019-03-06T23:21:09.477Z,9.30
2019-03-06T23:23:39.114Z,9.30
2019-03-06T23:26:08.605Z,9.20
2019-03-06T23:28:38.005Z,9.20
2019-03-06T23:31:07.436Z,9.00
2019-03-06T23:33:36.849Z,9.00
2019-03-06T23:36:06.398Z,9.00
2019-03-06T23:38:36.104Z,9.20
2019-03-06T23:41:05.570Z,9.30
2019-03-06T23:43:34.994Z,9.20
2019-03-06T23:46:04.474Z,9.20
2019-03-06T23:48:33.904Z,9.10
2019-03-06T23:51:07.492Z,8.90
2019-03-06T23:53:55.892Z,9.00
2019-03-06T23:56:25.303Z,8.90
2019-03-06T23:58:54.732Z,9.10
